Time;durP1;ratioP1;P1;durP2;ratioP2;P2;SDS_P1;SDS_P2;PMS_P1;PMS_P2;Temp;Humidity;BMP_temperature;BMP_pressure;BME280_temperature;BME280_humidity;BME280_pressure;Samples;Min_cycle;Max_cycle;Signal;HPM_P1;HPM_P2
2021/07/11 00:02:07;;;;;;;31.50;23.85;;;;;;;;;;5027983;28;20244;-70
2021/07/11 00:04:32;;;;;;;27.77;24.38;;;;;;;;;;5017710;28;20700;-70
2021/07/11 00:06:57;;;;;;;28.15;24.15;;;;;;;;;;5027500;28;20248;-70
2021/07/11 00:09:23;;;;;;;34.53;26.27;;;;;;;;;;5015886;28;20305;-70
2021/07/11 00:11:48;;;;;;;31.75;24.90;;;;;;;;;;5027947;28;20186;-71
2021/07/11 00:14:13;;;;;;;31.73;25.73;;;;;;;;;;5015581;28;20186;-70
2021/07/11 00:16:39;;;;;;;31.05;25.75;;;;;;;;;;5029045;28;20256;-70
2021/07/11 00:19:04;;;;;;;34.08;25.52;;;;;;;;;;5023753;28;20186;-70
2021/07/11 00:21:30;;;;;;;29.88;25.95;;;;;;;;;;5015389;28;20178;-70
2021/07/11 00:23:55;;;;;;;33.00;25.80;;;;;;;;;;5023954;28;20639;-71
2021/07/11 00:26:21;;;;;;;31.48;25.77;;;;;;;;;;5016790;28;20198;-70
2021/07/11 00:28:47;;;;;;;32.25;25.77;;;;;;;;;;5022484;28;20292;-71
2021/07/11 00:31:13;;;;;;;31.35;26.25;;;;;;;;;;5009110;28;20194;-70
2021/07/11 00:33:38;;;;;;;36.60;26.27;;;;;;;;;;5022170;28;20630;-71
2021/07/11 00:36:05;;;;;;;33.20;26.05;;;;;;;;;;5014090;28;20244;-70
2021/07/11 00:38:30;;;;;;;31.30;25.73;;;;;;;;;;5024472;28;20712;-71
2021/07/11 00:40:57;;;;;;;34.60;26.13;;;;;;;;;;4997190;28;20281;-71
2021/07/11 00:43:22;;;;;;;34.50;26.88;;;;;;;;;;5023440;28;20255;-71
2021/07/11 00:45:48;;;;;;;32.50;26.40;;;;;;;;;;5018677;28;20186;-70
2021/07/11 00:48:15;;;;;;;32.38;27.20;;;;;;;;;;5021984;28;20221;-70
2021/07/11 00:50:41;;;;;;;33.08;25.80;;;;;;;;;;5020399;28;20215;-70
2021/07/11 00:53:08;;;;;;;30.58;24.77;;;;;;;;;;5014239;28;20205;-70
2021/07/11 00:55:34;;;;;;;32.90;26.48;;;;;;;;;;5017330;28;20661;-70
2021/07/11 00:58:00;;;;;;;34.67;26.63;;;;;;;;;;5014851;28;20190;-70
2021/07/11 01:00:25;;;;;;;33.15;25.92;;;;;;;;;;5020545;28;20703;-70
2021/07/11 01:03:01;;;;;;;30.90;26.35;;;;;;;;;;5014792;28;20546;-70
2021/07/11 01:05:27;;;;;;;32.42;25.75;;;;;;;;;;5026157;28;20190;-70
2021/07/11 01:08:04;;;;;;;35.22;26.17;;;;;;;;;;4999327;28;20185;-70
2021/07/11 01:10:34;;;;;;;31.88;26.10;;;;;;;;;;5025245;28;20604;-70
2021/07/11 01:13:01;;;;;;;32.60;26.92;;;;;;;;;;5014442;28;20186;-70
2021/07/11 01:15:28;;;;;;;30.25;25.83;;;;;;;;;;5026110;28;20216;-70
2021/07/11 01:18:05;;;;;;;36.25;25.50;;;;;;;;;;5013653;28;20257;-70
2021/07/11 01:20:42;;;;;;;32.45;25.88;;;;;;;;;;5020859;28;20548;-70
2021/07/11 01:23:16;;;;;;;30.55;26.00;;;;;;;;;;5013507;28;20619;-70
2021/07/11 01:25:47;;;;;;;35.97;26.02;;;;;;;;;;5021914;28;20713;-68
2021/07/11 01:28:16;;;;;;;35.22;25.95;;;;;;;;;;5011918;28;20182;-68
2021/07/11 01:30:44;;;;;;;34.10;24.55;;;;;;;;;;5022643;28;20221;-68
2021/07/11 01:33:10;;;;;;;31.73;24.40;;;;;;;;;;5011621;28;20261;-68
2021/07/11 01:35:37;;;;;;;33.92;24.83;;;;;;;;;;5021115;28;20728;-68
2021/07/11 01:38:05;;;;;;;32.60;24.08;;;;;;;;;;5018756;28;20635;-68
2021/07/11 01:40:31;;;;;;;29.27;23.58;;;;;;;;;;5013970;28;20197;-68
2021/07/11 01:42:57;;;;;;;33.03;25.02;;;;;;;;;;5026755;28;20236;-68
2021/07/11 01:45:23;;;;;;;32.95;24.55;;;;;;;;;;5013429;28;20661;-68
2021/07/11 01:47:49;;;;;;;28.27;23.92;;;;;;;;;;5028448;28;20221;-68
2021/07/11 01:50:16;;;;;;;30.55;24.15;;;;;;;;;;5014312;28;20205;-68
2021/07/11 01:52:42;;;;;;;28.85;24.42;;;;;;;;;;5025046;28;20182;-69
2021/07/11 01:55:09;;;;;;;28.90;24.00;;;;;;;;;;5014030;28;20276;-69
2021/07/11 01:57:36;;;;;;;28.25;23.50;;;;;;;;;;5027893;28;20193;-69
2021/07/11 02:00:07;;;;;;;28.00;24.10;;;;;;;;;;4999846;28;20217;-69
2021/07/11 02:02:33;;;;;;;30.67;24.45;;;;;;;;;;5023778;28;20557;-69
2021/07/11 02:05:00;;;;;;;32.72;24.95;;;;;;;;;;5015272;28;20281;-69
2021/07/11 02:07:25;;;;;;;31.02;24.80;;;;;;;;;;5026804;28;20645;-69
2021/07/11 02:09:51;;;;;;;33.28;25.98;;;;;;;;;;5020773;28;20185;-69
2021/07/11 02:12:17;;;;;;;33.58;26.73;;;;;;;;;;5023734;28;20218;-69
2021/07/11 02:14:45;;;;;;;34.80;27.17;;;;;;;;;;5023305;28;20225;-69
2021/07/11 02:17:14;;;;;;;33.55;26.02;;;;;;;;;;5013113;28;20209;-69
2021/07/11 02:19:41;;;;;;;33.45;25.63;;;;;;;;;;5024122;28;20664;-69
2021/07/11 02:22:08;;;;;;;34.88;26.48;;;;;;;;;;5014381;28;20187;-69
2021/07/11 02:24:36;;;;;;;34.80;26.65;;;;;;;;;;5023645;28;20430;-69
2021/07/11 02:27:03;;;;;;;35.35;26.63;;;;;;;;;;5016199;28;20528;-69
2021/07/11 02:29:34;;;;;;;32.78;25.67;;;;;;;;;;5022702;28;20178;-69
2021/07/11 02:32:03;;;;;;;33.72;26.02;;;;;;;;;;5016090;28;20436;-69
2021/07/11 02:34:28;;;;;;;31.63;26.38;;;;;;;;;;5022506;28;20189;-69
2021/07/11 02:36:54;;;;;;;31.20;24.83;;;;;;;;;;5011396;28;20190;-69
2021/07/11 02:39:21;;;;;;;32.38;26.50;;;;;;;;;;5022897;28;20197;-69
2021/07/11 02:42:00;;;;;;;34.90;26.50;;;;;;;;;;5014427;28;24739;-69
2021/07/11 02:44:26;;;;;;;35.65;27.20;;;;;;;;;;5027154;28;20184;-69
2021/07/11 02:47:02;;;;;;;33.47;25.58;;;;;;;;;;5017211;28;20647;-70
2021/07/11 02:49:31;;;;;;;35.17;25.13;;;;;;;;;;5020076;28;20234;-69
2021/07/11 02:51:58;;;;;;;34.13;26.83;;;;;;;;;;5018391;28;20178;-70
2021/07/11 02:54:28;;;;;;;34.17;25.88;;;;;;;;;;5008861;28;20191;-70
2021/07/11 02:57:00;;;;;;;34.97;25.20;;;;;;;;;;5020859;28;20547;-70
2021/07/11 02:59:26;;;;;;;34.45;26.33;;;;;;;;;;5013632;28;20351;-70
2021/07/11 03:01:52;;;;;;;33.25;26.25;;;;;;;;;;5018317;28;20694;-70
2021/07/11 03:04:20;;;;;;;38.70;26.83;;;;;;;;;;5016522;28;20509;-70
2021/07/11 03:06:45;;;;;;;34.20;27.80;;;;;;;;;;5023231;28;20257;-70
2021/07/11 03:09:10;;;;;;;39.78;29.33;;;;;;;;;;5015743;28;20277;-70
2021/07/11 03:11:38;;;;;;;39.22;28.08;;;;;;;;;;5018897;28;20178;-70
2021/07/11 03:14:08;;;;;;;37.65;28.67;;;;;;;;;;5005982;28;20305;-70
2021/07/11 03:16:35;;;;;;;41.83;29.52;;;;;;;;;;5004751;28;20215;-70
2021/07/11 03:19:01;;;;;;;37.50;28.77;;;;;;;;;;5009096;28;20193;-70
2021/07/11 03:21:28;;;;;;;37.15;29.35;;;;;;;;;;5021748;28;20252;-70
2021/07/11 03:23:55;;;;;;;38.30;29.67;;;;;;;;;;5013722;28;20509;-70
2021/07/11 03:26:21;;;;;;;41.35;30.38;;;;;;;;;;5023545;28;20192;-70
2021/07/11 03:28:48;;;;;;;40.50;30.60;;;;;;;;;;5023029;28;20187;-70
2021/07/11 03:31:13;;;;;;;38.30;29.65;;;;;;;;;;5018529;28;20205;-70
2021/07/11 03:33:42;;;;;;;39.95;30.13;;;;;;;;;;5029312;28;20655;-70
2021/07/11 03:36:11;;;;;;;41.28;30.85;;;;;;;;;;5017528;28;20209;-70
2021/07/11 03:38:51;;;;;;;41.42;30.52;;;;;;;;;;5027509;28;20269;-70
2021/07/11 03:41:19;;;;;;;41.80;31.23;;;;;;;;;;5009604;28;20185;-70
2021/07/11 03:43:49;;;;;;;43.80;31.67;;;;;;;;;;5025365;28;20193;-70
2021/07/11 03:46:17;;;;;;;44.13;32.13;;;;;;;;;;5015880;28;20206;-70
2021/07/11 03:48:45;;;;;;;50.15;32.15;;;;;;;;;;5027570;28;20232;-70
2021/07/11 03:51:11;;;;;;;48.70;34.55;;;;;;;;;;5020134;28;20181;-71
2021/07/11 03:53:38;;;;;;;46.88;32.65;;;;;;;;;;5028536;28;20190;-71
2021/07/11 03:56:05;;;;;;;48.13;33.97;;;;;;;;;;5019816;28;20201;-70
2021/07/11 03:58:35;;;;;;;43.17;31.08;;;;;;;;;;5029268;28;20197;-69
2021/07/11 04:01:01;;;;;;;44.63;32.58;;;;;;;;;;5019387;28;20214;-67
2021/07/11 04:03:30;;;;;;;48.20;33.47;;;;;;;;;;5028368;28;20192;-67
2021/07/11 04:05:57;;;;;;;46.95;32.60;;;;;;;;;;5017591;28;20170;-67
2021/07/11 04:08:24;;;;;;;45.40;32.78;;;;;;;;;;5026409;28;20186;-68
2021/07/11 04:10:49;;;;;;;49.78;34.35;;;;;;;;;;5027619;28;20170;-69
2021/07/11 04:13:15;;;;;;;51.55;33.67;;;;;;;;;;5020090;28;20193;-69
2021/07/11 04:15:46;;;;;;;47.78;34.42;;;;;;;;;;5029921;28;20224;-69
2021/07/11 04:18:13;;;;;;;45.83;32.50;;;;;;;;;;5016519;28;20191;-69
2021/07/11 04:20:41;;;;;;;46.65;33.40;;;;;;;;;;5029046;28;20202;-69
2021/07/11 04:23:07;;;;;;;50.80;33.42;;;;;;;;;;5018049;28;20193;-69
2021/07/11 04:25:39;;;;;;;48.25;32.58;;;;;;;;;;5027518;28;20181;-69
2021/07/11 04:28:05;;;;;;;46.25;32.30;;;;;;;;;;5013739;28;20194;-69
2021/07/11 04:30:31;;;;;;;48.25;34.92;;;;;;;;;;5027367;28;20265;-69
2021/07/11 04:32:57;;;;;;;44.28;32.92;;;;;;;;;;5021743;28;20255;-68
2021/07/11 04:35:22;;;;;;;48.95;33.35;;;;;;;;;;5024351;28;20202;-67
2021/07/11 04:37:47;;;;;;;49.22;32.22;;;;;;;;;;5016762;28;20603;-67
2021/07/11 04:40:13;;;;;;;48.22;32.08;;;;;;;;;;5025251;28;21331;-68
2021/07/11 04:42:39;;;;;;;43.42;31.92;;;;;;;;;;5018967;28;20204;-68
2021/07/11 04:45:05;;;;;;;46.28;31.38;;;;;;;;;;5028754;28;20170;-68
2021/07/11 04:47:30;;;;;;;43.75;30.02;;;;;;;;;;5025432;28;20204;-68
2021/07/11 04:49:56;;;;;;;40.20;30.00;;;;;;;;;;5016702;28;20575;-69
2021/07/11 04:52:21;;;;;;;43.15;31.90;;;;;;;;;;5025473;28;20280;-69
2021/07/11 04:54:48;;;;;;;43.17;30.75;;;;;;;;;;5018929;28;20178;-69
2021/07/11 04:57:14;;;;;;;45.88;30.02;;;;;;;;;;5025293;28;20187;-69
2021/07/11 04:59:39;;;;;;;43.60;29.88;;;;;;;;;;5017468;28;20213;-69
2021/07/11 05:02:05;;;;;;;40.60;29.70;;;;;;;;;;5023218;28;20192;-69
2021/07/11 05:04:30;;;;;;;39.38;29.45;;;;;;;;;;5017617;28;20225;-69
2021/07/11 05:06:55;;;;;;;42.03;30.35;;;;;;;;;;5026197;28;20189;-69
2021/07/11 05:09:21;;;;;;;44.28;29.88;;;;;;;;;;5013802;28;20205;-69
2021/07/11 05:11:46;;;;;;;43.80;30.83;;;;;;;;;;5023227;28;20193;-69
2021/07/11 05:14:11;;;;;;;43.45;30.67;;;;;;;;;;5018942;28;20190;-69
2021/07/11 05:16:37;;;;;;;42.50;29.52;;;;;;;;;;5016240;28;20351;-69
2021/07/11 05:19:03;;;;;;;43.88;29.30;;;;;;;;;;5019870;28;20665;-69
2021/07/11 05:21:29;;;;;;;40.30;29.13;;;;;;;;;;5016163;28;20197;-69
2021/07/11 05:23:56;;;;;;;45.15;30.38;;;;;;;;;;5027846;28;20185;-69
2021/07/11 05:26:22;;;;;;;44.08;30.00;;;;;;;;;;5014122;28;20340;-69
2021/07/11 05:28:47;;;;;;;46.10;31.70;;;;;;;;;;5024003;28;20272;-69
2021/07/11 05:31:13;;;;;;;42.88;30.08;;;;;;;;;;5014162;28;20182;-69
2021/07/11 05:33:39;;;;;;;40.50;28.88;;;;;;;;;;5027259;28;20177;-69
2021/07/11 05:36:07;;;;;;;38.20;28.60;;;;;;;;;;5014232;28;20214;-69
2021/07/11 05:38:33;;;;;;;41.67;29.30;;;;;;;;;;5023340;28;20220;-70
2021/07/11 05:40:58;;;;;;;41.65;29.10;;;;;;;;;;5013535;28;20190;-70
2021/07/11 05:43:24;;;;;;;41.97;27.98;;;;;;;;;;5027208;28;20185;-70
2021/07/11 05:45:49;;;;;;;39.95;28.27;;;;;;;;;;5015940;28;20236;-70
2021/07/11 05:48:15;;;;;;;40.13;28.55;;;;;;;;;;5024086;28;20233;-70
2021/07/11 05:50:40;;;;;;;39.72;27.05;;;;;;;;;;5022753;28;20673;-71
2021/07/11 05:53:09;;;;;;;35.60;27.23;;;;;;;;;;5015989;28;20182;-71
2021/07/11 05:55:35;;;;;;;35.03;26.67;;;;;;;;;;5022098;28;20301;-71
2021/07/11 05:58:00;;;;;;;34.53;26.38;;;;;;;;;;5009098;28;20289;-71
2021/07/11 06:00:26;;;;;;;36.10;26.77;;;;;;;;;;5024452;28;20299;-71
2021/07/11 06:02:51;;;;;;;35.45;26.65;;;;;;;;;;5011360;28;20626;-71
2021/07/11 06:05:16;;;;;;;36.42;26.40;;;;;;;;;;5021452;28;20680;-69
2021/07/11 06:07:41;;;;;;;32.95;24.13;;;;;;;;;;5006744;28;20206;-70
2021/07/11 06:10:08;;;;;;;34.42;25.95;;;;;;;;;;5020435;28;20705;-70
2021/07/11 06:12:34;;;;;;;32.10;25.30;;;;;;;;;;5013305;28;20632;-70
2021/07/11 06:14:59;;;;;;;30.85;23.75;;;;;;;;;;5021849;28;20546;-69
2021/07/11 06:17:26;;;;;;;32.33;23.77;;;;;;;;;;5010530;28;20178;-70
2021/07/11 06:19:52;;;;;;;32.63;24.42;;;;;;;;;;5020278;28;20251;-70
2021/07/11 06:22:17;;;;;;;31.67;24.75;;;;;;;;;;5026083;28;20653;-70
2021/07/11 06:24:42;;;;;;;35.83;24.95;;;;;;;;;;5015301;28;20272;-70
2021/07/11 06:27:08;;;;;;;37.15;24.30;;;;;;;;;;5023385;28;20170;-70
2021/07/11 06:29:33;;;;;;;34.28;24.23;;;;;;;;;;5012991;28;20277;-70
2021/07/11 06:31:58;;;;;;;29.58;24.02;;;;;;;;;;5018864;28;20672;-70
2021/07/11 06:34:24;;;;;;;30.95;23.55;;;;;;;;;;5013839;28;20308;-69
2021/07/11 06:36:49;;;;;;;32.45;25.42;;;;;;;;;;5018877;28;20209;-70
2021/07/11 06:39:14;;;;;;;31.02;24.63;;;;;;;;;;5009054;28;20178;-70
2021/07/11 06:41:40;;;;;;;30.70;24.20;;;;;;;;;;5018172;28;20182;-69
2021/07/11 06:44:05;;;;;;;36.17;26.02;;;;;;;;;;5014230;28;20546;-69
2021/07/11 06:46:31;;;;;;;29.75;24.90;;;;;;;;;;5027116;28;20181;-70
2021/07/11 06:48:56;;;;;;;33.30;25.05;;;;;;;;;;5015101;28;20222;-69
2021/07/11 06:51:21;;;;;;;31.48;23.33;;;;;;;;;;5021002;28;20569;-69
2021/07/11 06:53:47;;;;;;;29.85;23.13;;;;;;;;;;5021588;28;20248;-69
2021/07/11 06:56:12;;;;;;;30.23;24.38;;;;;;;;;;5010013;28;20213;-69
2021/07/11 06:58:37;;;;;;;33.13;24.50;;;;;;;;;;5021448;28;20186;-69
2021/07/11 07:01:03;;;;;;;32.40;24.90;;;;;;;;;;5005304;28;20229;-69
2021/07/11 07:03:28;;;;;;;33.80;24.95;;;;;;;;;;5021504;28;20186;-69
2021/07/11 07:05:53;;;;;;;36.42;26.60;;;;;;;;;;5020111;28;20193;-69
2021/07/11 07:08:19;;;;;;;32.45;27.40;;;;;;;;;;5024337;28;20554;-69
2021/07/11 07:10:44;;;;;;;35.67;28.73;;;;;;;;;;5011075;28;20182;-69
2021/07/11 07:13:10;;;;;;;26.52;22.52;;;;;;;;;;5023359;28;20190;-69
2021/07/11 07:15:36;;;;;;;35.20;27.55;;;;;;;;;;5020142;28;20634;-69
2021/07/11 07:18:01;;;;;;;31.33;25.73;;;;;;;;;;5024532;28;20190;-70
2021/07/11 07:20:27;;;;;;;32.75;26.27;;;;;;;;;;5029328;28;20207;-70
2021/07/11 07:22:53;;;;;;;29.75;25.75;;;;;;;;;;5017685;28;20201;-69
2021/07/11 07:25:18;;;;;;;33.22;26.48;;;;;;;;;;5029329;28;20182;-69
2021/07/11 07:27:45;;;;;;;33.35;26.88;;;;;;;;;;5015480;28;20189;-70
2021/07/11 07:30:15;;;;;;;33.05;26.48;;;;;;;;;;5018267;28;20261;-70
2021/07/11 07:32:42;;;;;;;36.42;27.67;;;;;;;;;;5016867;28;20434;-70
2021/07/11 07:35:08;;;;;;;32.13;27.42;;;;;;;;;;5023966;28;20183;-69
2021/07/11 07:37:33;;;;;;;28.30;23.10;;;;;;;;;;5016570;28;20205;-69
2021/07/11 07:39:59;;;;;;;35.53;28.48;;;;;;;;;;5029334;28;20271;-69
2021/07/11 07:42:24;;;;;;;31.33;26.35;;;;;;;;;;5014967;28;20673;-69
2021/07/11 07:44:50;;;;;;;32.50;25.52;;;;;;;;;;5026003;28;20721;-70
2021/07/11 07:47:15;;;;;;;31.08;25.30;;;;;;;;;;5015289;28;20189;-69
2021/07/11 07:49:41;;;;;;;29.50;24.42;;;;;;;;;;5026742;28;20708;-69
2021/07/11 07:52:06;;;;;;;30.20;25.45;;;;;;;;;;5021087;28;20185;-70
2021/07/11 07:54:32;;;;;;;33.00;25.65;;;;;;;;;;5016312;28;20282;-70
2021/07/11 07:56:57;;;;;;;31.63;24.60;;;;;;;;;;5023482;28;20624;-74
2021/07/11 07:59:22;;;;;;;30.33;27.05;;;;;;;;;;5009763;28;20199;-72
2021/07/11 08:01:48;;;;;;;34.85;28.58;;;;;;;;;;5010191;28;20595;-69
2021/07/11 08:04:13;;;;;;;32.03;28.38;;;;;;;;;;5009449;28;20194;-69
2021/07/11 08:06:39;;;;;;;29.55;24.67;;;;;;;;;;5023496;28;20278;-73
2021/07/11 08:09:05;;;;;;;29.52;25.98;;;;;;;;;;5014038;28;20189;-72
2021/07/11 08:11:32;;;;;;;33.38;27.95;;;;;;;;;;5007371;28;20665;-68
2021/07/11 08:13:57;;;;;;;33.33;28.40;;;;;;;;;;5013043;28;20182;-70
2021/07/11 08:16:23;;;;;;;33.60;28.70;;;;;;;;;;5022325;28;20271;-69
2021/07/11 08:18:49;;;;;;;34.97;30.00;;;;;;;;;;5017068;28;20380;-69
2021/07/11 08:21:14;;;;;;;31.92;27.83;;;;;;;;;;5022559;28;20186;-69
2021/07/11 08:23:40;;;;;;;35.95;29.92;;;;;;;;;;5025002;28;20288;-70
2021/07/11 08:26:06;;;;;;;37.38;30.25;;;;;;;;;;5017706;28;20259;-70
2021/07/11 08:28:31;;;;;;;39.17;30.83;;;;;;;;;;5028574;28;20185;-70
2021/07/11 08:30:56;;;;;;;39.30;31.83;;;;;;;;;;5016178;28;20205;-70
2021/07/11 08:33:22;;;;;;;38.47;32.42;;;;;;;;;;5027868;28;20768;-69
2021/07/11 08:35:47;;;;;;;42.35;33.83;;;;;;;;;;5013794;28;20228;-70
2021/07/11 08:38:13;;;;;;;40.97;33.72;;;;;;;;;;5021942;28;20653;-70
2021/07/11 08:40:39;;;;;;;41.10;35.03;;;;;;;;;;5011697;28;20285;-70
2021/07/11 08:43:06;;;;;;;43.78;36.53;;;;;;;;;;5025805;28;20205;-71
2021/07/11 08:45:32;;;;;;;37.97;32.50;;;;;;;;;;5015343;28;20190;-71
2021/07/11 08:47:58;;;;;;;44.35;35.90;;;;;;;;;;5027564;28;20545;-71
2021/07/11 08:50:23;;;;;;;41.17;35.47;;;;;;;;;;4996250;28;20224;-69
2021/07/11 08:52:48;;;;;;;42.33;35.85;;;;;;;;;;5025054;28;20186;-71
2021/07/11 08:55:19;;;;;;;44.55;36.33;;;;;;;;;;5020700;28;20312;-70
2021/07/11 08:57:54;;;;;;;42.28;34.45;;;;;;;;;;5006667;28;20657;-71
2021/07/11 09:00:23;;;;;;;43.47;35.30;;;;;;;;;;5024047;28;20209;-69
2021/07/11 09:02:48;;;;;;;40.78;35.08;;;;;;;;;;5013389;28;20289;-71
2021/07/11 09:05:23;;;;;;;35.97;30.98;;;;;;;;;;5025354;28;20257;-71
2021/07/11 09:07:59;;;;;;;40.00;35.03;;;;;;;;;;5014288;28;20189;-69
2021/07/11 09:10:56;;;;;;;41.10;32.60;;;;;;;;;;5025590;28;20213;-71
2021/07/11 09:13:27;;;;;;;40.65;33.53;;;;;;;;;;4993329;28;20210;-70
2021/07/11 09:15:55;;;;;;;43.95;38.85;;;;;;;;;;5026769;28;20200;-72
2021/07/11 09:18:25;;;;;;;44.95;37.95;;;;;;;;;;5014162;28;20359;-72
2021/07/11 09:21:02;;;;;;;42.88;37.92;;;;;;;;;;5024290;28;20186;-71
2021/07/11 09:23:29;;;;;;;46.38;39.53;;;;;;;;;;5014244;28;20221;-71
2021/07/11 09:26:00;;;;;;;43.08;36.45;;;;;;;;;;5023780;28;20178;-71
2021/07/11 09:28:25;;;;;;;45.30;38.53;;;;;;;;;;5010418;28;20252;-71
2021/07/11 09:31:06;;;;;;;38.65;33.22;;;;;;;;;;5027829;28;20194;-71
2021/07/11 09:33:33;;;;;;;43.42;37.40;;;;;;;;;;5013055;28;20326;-71
2021/07/11 09:36:16;;;;;;;46.17;38.70;;;;;;;;;;5026578;28;20221;-71
2021/07/11 09:38:46;;;;;;;47.40;37.92;;;;;;;;;;4998637;28;20212;-71
2021/07/11 09:41:25;;;;;;;47.70;39.10;;;;;;;;;;5023828;28;20277;-70
2021/07/11 09:43:53;;;;;;;46.20;39.40;;;;;;;;;;5014996;28;20190;-70
2021/07/11 09:46:20;;;;;;;43.88;35.75;;;;;;;;;;5018201;28;20273;-70
2021/07/11 09:48:45;;;;;;;45.92;37.10;;;;;;;;;;5012712;28;20227;-70
2021/07/11 09:51:13;;;;;;;43.90;36.10;;;;;;;;;;5017866;28;20708;-71
2021/07/11 09:53:38;;;;;;;39.25;34.63;;;;;;;;;;5016224;28;20171;-72
2021/07/11 09:56:04;;;;;;;41.13;35.20;;;;;;;;;;5006196;28;20264;-69
2021/07/11 09:58:32;;;;;;;39.85;33.65;;;;;;;;;;5022800;28;20174;-72
2021/07/11 10:00:57;;;;;;;35.78;31.42;;;;;;;;;;5013153;28;20216;-71
2021/07/11 10:03:23;;;;;;;38.28;33.42;;;;;;;;;;5003055;28;20651;-71
2021/07/11 10:05:49;;;;;;;37.80;32.70;;;;;;;;;;5014654;28;20182;-70
2021/07/11 10:08:14;;;;;;;36.35;32.22;;;;;;;;;;5018780;28;20182;-70
2021/07/11 10:10:41;;;;;;;39.53;33.10;;;;;;;;;;5017101;28;20594;-72
2021/07/11 10:13:07;;;;;;;33.58;29.25;;;;;;;;;;5017611;28;20201;-72
2021/07/11 10:15:38;;;;;;;39.35;34.03;;;;;;;;;;5010600;28;20528;-73
2021/07/11 10:18:12;;;;;;;39.90;34.50;;;;;;;;;;5001671;28;20197;-71
2021/07/11 10:20:40;;;;;;;38.22;32.90;;;;;;;;;;5009271;28;20190;-71
2021/07/11 10:23:07;;;;;;;43.35;34.45;;;;;;;;;;5024206;28;20240;-71
2021/07/11 10:25:34;;;;;;;38.97;33.78;;;;;;;;;;5008611;28;20209;-72
2021/07/11 10:28:10;;;;;;;34.63;30.75;;;;;;;;;;5024086;28;20193;-73
2021/07/11 10:30:41;;;;;;;38.40;33.67;;;;;;;;;;5008092;28;20577;-72
2021/07/11 10:33:07;;;;;;;37.72;33.42;;;;;;;;;;5024361;28;20184;-77
2021/07/11 10:35:32;;;;;;;36.97;32.92;;;;;;;;;;5019196;28;20193;-72
2021/07/11 10:37:57;;;;;;;38.42;33.47;;;;;;;;;;5020940;28;20190;-70
2021/07/11 10:40:33;;;;;;;38.70;33.38;;;;;;;;;;5018233;28;20198;-72
2021/07/11 10:42:58;;;;;;;42.20;33.97;;;;;;;;;;5015101;28;20272;-72
2021/07/11 10:45:24;;;;;;;36.67;32.22;;;;;;;;;;5023049;28;20601;-72
2021/07/11 10:47:50;;;;;;;37.45;31.17;;;;;;;;;;5015418;28;20186;-70
2021/07/11 10:50:32;;;;;;;39.83;32.47;;;;;;;;;;5024648;28;20297;-70
2021/07/11 10:52:59;;;;;;;39.58;33.65;;;;;;;;;;5010202;28;20181;-69
2021/07/11 10:55:40;;;;;;;40.45;33.08;;;;;;;;;;5022277;28;20220;-72
2021/07/11 10:58:13;;;;;;;40.65;34.13;;;;;;;;;;5014781;28;20178;-72
2021/07/11 11:00:39;;;;;;;36.95;31.83;;;;;;;;;;5021241;28;20210;-72
2021/07/11 11:03:25;;;;;;;35.15;30.52;;;;;;;;;;5011211;28;20187;-70
2021/07/11 11:05:52;;;;;;;40.65;33.92;;;;;;;;;;5023940;28;20182;-72
2021/07/11 11:08:19;;;;;;;45.10;35.50;;;;;;;;;;5013856;28;20183;-73
2021/07/11 11:10:46;;;;;;;43.90;34.63;;;;;;;;;;5022853;28;20646;-71
2021/07/11 11:13:26;;;;;;;38.63;33.70;;;;;;;;;;5013451;28;20191;-70
2021/07/11 11:15:56;;;;;;;42.03;34.15;;;;;;;;;;5023601;28;20193;-70
2021/07/11 11:18:24;;;;;;;38.67;32.75;;;;;;;;;;5007951;28;20220;-70
2021/07/11 11:21:02;;;;;;;39.25;33.25;;;;;;;;;;5024097;28;20654;-69
2021/07/11 11:23:33;;;;;;;36.42;32.03;;;;;;;;;;5016591;28;20193;-71
2021/07/11 11:25:59;;;;;;;39.33;31.55;;;;;;;;;;5018912;28;20638;-72
2021/07/11 11:28:31;;;;;;;37.75;32.10;;;;;;;;;;5011118;28;20244;-71
2021/07/11 11:31:15;;;;;;;39.03;32.75;;;;;;;;;;5022142;28;20666;-71
2021/07/11 11:34:08;;;;;;;43.05;36.55;;;;;;;;;;5009354;28;20209;-70
2021/07/11 11:36:46;;;;;;;36.97;33.00;;;;;;;;;;5018318;28;20592;-70
2021/07/11 11:39:26;;;;;;;38.20;33.65;;;;;;;;;;5012234;28;20213;-71
2021/07/11 11:41:53;;;;;;;38.90;32.58;;;;;;;;;;5021904;28;20549;-69
2021/07/11 11:44:20;;;;;;;36.20;30.70;;;;;;;;;;5011020;28;20206;-71
2021/07/11 11:46:48;;;;;;;33.95;30.25;;;;;;;;;;5024266;28;20189;-71
2021/07/11 11:49:17;;;;;;;33.80;28.83;;;;;;;;;;5021287;28;20244;-73
2021/07/11 11:51:47;;;;;;;32.42;28.35;;;;;;;;;;5049325;28;20197;-73
2021/07/11 11:54:37;;;;;;;29.60;26.42;;;;;;;;;;5042166;28;20208;-72
2021/07/11 11:57:04;;;;;;;33.85;27.35;;;;;;;;;;5036551;28;20300;-71
2021/07/11 11:59:30;;;;;;;28.90;25.75;;;;;;;;;;5044370;28;20567;-69
2021/07/11 12:02:04;;;;;;;31.45;27.80;;;;;;;;;;5037939;28;20185;-69
2021/07/11 12:04:31;;;;;;;32.40;28.15;;;;;;;;;;5046203;28;20641;-72
2021/07/11 12:06:58;;;;;;;32.80;27.88;;;;;;;;;;5037822;28;20257;-73
2021/07/11 12:09:26;;;;;;;29.92;25.65;;;;;;;;;;5047536;28;20282;-73
2021/07/11 12:12:08;;;;;;;31.05;26.27;;;;;;;;;;5037238;28;20605;-73
2021/07/11 12:14:36;;;;;;;31.80;26.17;;;;;;;;;;5047318;28;20255;-70
2021/07/11 12:17:13;;;;;;;29.92;26.25;;;;;;;;;;5039847;28;20575;-72
2021/07/11 12:19:50;;;;;;;29.55;26.30;;;;;;;;;;5039171;28;20192;-72
2021/07/11 12:22:31;;;;;;;29.45;25.35;;;;;;;;;;5038611;28;20612;-70
2021/07/11 12:25:19;;;;;;;30.58;25.33;;;;;;;;;;5048102;28;20189;-71
2021/07/11 12:27:48;;;;;;;25.77;22.98;;;;;;;;;;5037816;28;20186;-71
2021/07/11 12:30:19;;;;;;;26.58;22.30;;;;;;;;;;5045851;28;20227;-71
2021/07/11 12:32:52;;;;;;;24.52;21.98;;;;;;;;;;5034492;28;20186;-70
2021/07/11 12:35:19;;;;;;;19.88;17.88;;;;;;;;;;5041787;28;20498;-69
2021/07/11 12:37:57;;;;;;;24.10;21.60;;;;;;;;;;5040774;28;20188;-70
2021/07/11 12:40:28;;;;;;;24.35;21.85;;;;;;;;;;5045156;28;20246;-69
2021/07/11 12:43:08;;;;;;;23.27;20.13;;;;;;;;;;5038455;28;20185;-69
2021/07/11 12:45:37;;;;;;;24.60;22.08;;;;;;;;;;5046520;28;20184;-69
2021/07/11 12:48:03;;;;;;;23.67;20.25;;;;;;;;;;5034758;28;20205;-69
2021/07/11 12:50:34;;;;;;;22.25;19.15;;;;;;;;;;5047061;28;20189;-70
2021/07/11 12:53:00;;;;;;;21.20;18.98;;;;;;;;;;5034425;28;21188;-69
2021/07/11 12:55:25;;;;;;;23.40;20.90;;;;;;;;;;5046622;28;20241;-69
2021/07/11 12:57:51;;;;;;;25.08;22.48;;;;;;;;;;5037945;28;20644;-68
2021/07/11 13:00:24;;;;;;;24.92;22.13;;;;;;;;;;5042826;28;20557;-69
2021/07/11 13:02:57;;;;;;;22.20;19.80;;;;;;;;;;5040157;28;20280;-69
2021/07/11 13:05:34;;;;;;;22.73;20.33;;;;;;;;;;5037666;28;20186;-70
2021/07/11 13:08:04;;;;;;;23.52;21.13;;;;;;;;;;5042850;28;20246;-69
2021/07/11 13:10:30;;;;;;;24.35;21.75;;;;;;;;;;5035244;28;20312;-68
2021/07/11 13:12:55;;;;;;;22.88;19.38;;;;;;;;;;5048250;28;20264;-68
2021/07/11 13:15:20;;;;;;;26.33;19.63;;;;;;;;;;5035346;28;20280;-69
2021/07/11 13:17:46;;;;;;;23.88;20.90;;;;;;;;;;5053347;28;20184;-68
2021/07/11 13:20:12;;;;;;;21.77;19.52;;;;;;;;;;5035538;28;20281;-68
2021/07/11 13:22:38;;;;;;;22.63;20.23;;;;;;;;;;5045209;28;20562;-69
2021/07/11 13:25:05;;;;;;;23.33;20.95;;;;;;;;;;5035473;28;20240;-68
2021/07/11 13:27:31;;;;;;;21.17;18.92;;;;;;;;;;5046094;28;20185;-70
2021/07/11 13:29:57;;;;;;;22.88;19.92;;;;;;;;;;5036076;28;20200;-71
2021/07/11 13:32:22;;;;;;;20.83;17.95;;;;;;;;;;5045685;28;20174;-71
2021/07/11 13:34:49;;;;;;;19.85;17.77;;;;;;;;;;5034682;28;20197;-70
2021/07/11 13:37:14;;;;;;;21.60;19.40;;;;;;;;;;5033784;28;20209;-69
2021/07/11 13:39:39;;;;;;;20.23;18.17;;;;;;;;;;5043829;28;20338;-70
2021/07/11 13:42:05;;;;;;;18.58;16.67;;;;;;;;;;5037401;28;20209;-72
2021/07/11 13:44:30;;;;;;;19.73;17.63;;;;;;;;;;5044043;28;20201;-69
2021/07/11 13:46:55;;;;;;;19.27;17.25;;;;;;;;;;5037461;28;20181;-70
2021/07/11 13:49:21;;;;;;;18.02;16.17;;;;;;;;;;5040728;28;20229;-70
2021/07/11 13:51:46;;;;;;;19.40;15.70;;;;;;;;;;5037245;28;20182;-70
2021/07/11 13:54:11;;;;;;;17.73;15.52;;;;;;;;;;5026904;28;20181;-70
2021/07/11 13:56:37;;;;;;;19.00;17.08;;;;;;;;;;5042438;28;20781;-69
2021/07/11 13:59:05;;;;;;;16.77;15.00;;;;;;;;;;5041832;28;20748;-71
2021/07/11 14:01:30;;;;;;;17.80;15.88;;;;;;;;;;5034092;28;20588;-70
2021/07/11 14:03:56;;;;;;;14.93;13.40;;;;;;;;;;5042181;28;20193;-70
2021/07/11 14:06:21;;;;;;;15.95;14.25;;;;;;;;;;5031969;28;20174;-70
2021/07/11 14:08:46;;;;;;;16.70;13.60;;;;;;;;;;5039775;28;20274;-70
2021/07/11 14:11:12;;;;;;;14.15;12.68;;;;;;;;;;5038455;28;20205;-69
2021/07/11 14:13:37;;;;;;;13.23;11.82;;;;;;;;;;5031837;28;20283;-72
2021/07/11 14:16:03;;;;;;;12.48;11.27;;;;;;;;;;5045433;28;20535;-72
2021/07/11 14:18:28;;;;;;;13.48;12.07;;;;;;;;;;5014943;28;20201;-71
2021/07/11 14:20:54;;;;;;;12.68;11.38;;;;;;;;;;5044339;28;20185;-70